Flight Track Log - Related Links

Times and Time Zones

All times are in EDT time to prevent confusion due to time zone crossing. See the JBU917 flight status page for this flight to view local times or setup timezone preferences in your user account.

Time Position Orientation Groundspeed Altitude Reporting Facility
EDT Latitude Longitude Course Direction KTS MPH feet Rate Location/Type
Tue 06:01:00 AM 42.3667 -70.9667 160° South 164 189 700  Level KA90
Tue 06:01:36 AM 42.3667 -70.9333 90° East 164 189 1,800 1,858 Climbing KA90
Tue 06:02:53 AM 42.3850 -70.8519 73° East 269 310 4,200 2,803 Climbing Boston Center
Tue 06:03:53 AM 42.3750 -70.7286 96° East 275 316 8,200 3,500 Climbing Boston Center
Tue 06:04:00 AM 42.3153 -70.6961 164° South  Level FlightAware Approximate
Tue 06:04:53 AM 42.2950 -70.6831 157° South 248 285 11,200  Level Boston Center
Tue 06:05:00 AM 42.2316 -70.6491 160° South  Level FlightAware Approximate
Tue 06:05:54 AM 42.2028 -70.6436 162° South 303 349 13,800  Level Boston Center
Tue 06:06:00 AM 42.1459 -70.6062 160° South  Level FlightAware Approximate
Tue 06:06:53 AM 42.1067 -70.6267 173° South 329 379 16,300  Level Boston Center
Tue 06:07:53 AM 42.0053 -70.6744 199° South 349 402 19,300 2,678 Climbing Boston Center
Tue 06:08:54 AM 41.9100 -70.7161 198° South 361 415 21,700 1,350 Climbing Boston Center
Tue 06:09:53 AM 41.8322 -70.8075 221° Southwest 361 415 22,000 151 Climbing Boston Center
Tue 06:10:53 AM 41.7625 -70.8928 222° Southwest 381 438 22,000  Level Boston Center
Tue 06:12:05 AM 41.6639 -71.0089 221° Southwest 391 450 22,000  Level Boston Center
Tue 06:13:05 AM 41.5839 -71.1025 221° Southwest 391 450 22,000  Level Boston Center
Tue 06:14:05 AM 41.5036 -71.1928 220° Southwest 386 444 22,000  Level Boston Center
Tue 06:15:05 AM 41.4214 -71.2886 221° Southwest 386 444 22,000  Level Boston Center
Tue 06:16:05 AM 41.3450 -71.3811 222° Southwest 386 444 22,000  Level Boston Center
Tue 06:17:06 AM 41.2625 -71.4764 221° Southwest 386 444 22,000  Level Boston Center
Tue 06:18:05 AM 41.1739 -71.5769 221° Southwest 386 444 22,000  Level Boston Center
Tue 06:19:05 AM 41.1411 -71.6931 249° West 368 423 22,000 -150 Level Boston Center
Tue 06:20:05 AM 41.1150 -71.8367 256° West 400 460 21,700 -942 Descending Boston Center
Tue 06:21:06 AM 41.0886 -71.9939 257° West 405 466 20,100 -1,636 Descending Boston Center
Tue 06:22:06 AM 41.0600 -72.1264 254° West 387 445 18,400 -1,412 Descending Boston Center
Tue 06:23:05 AM 41.0394 -72.2392 256° West 373 429 17,300 -1,300 Descending Boston Center
Tue 06:24:06 AM 41.0144 -72.3658 255° West 368 423 15,800 -1,650 Descending Boston Center
Tue 06:25:05 AM 40.9875 -72.5006 255° West 356 410 14,000 -1,513 Descending Boston Center
Tue 06:26:05 AM 40.9644 -72.6186 256° West 351 404 12,800 -1,000 Descending Boston Center
Tue 06:27:05 AM 40.9453 -72.7314 257° West 334 384 12,000 -420 Descending Boston Center
Tue 06:27:45 AM 40.9333 -72.8000 257° West 292 336 12,100 57 Climbing New York TRACON
Tue 06:28:50 AM 40.8500 -72.8667 211° Southwest 303 349 12,100 -48 Level New York TRACON
Tue 06:29:50 AM 40.7833 -72.9333 217° Southwest 300 345 12,000 -850 Descending New York TRACON
Tue 06:30:50 AM 40.7333 -73.0000 225° Southwest 291 335 10,400 -1,565 Descending New York TRACON
Tue 06:31:45 AM 40.7000 -73.0833 242° Southwest 277 319 9,000 -1,550 Descending New York TRACON
Tue 06:32:50 AM 40.6833 -73.2000 259° West 270 311 7,300 -1,536 Descending New York TRACON
Tue 06:33:50 AM 40.7000 -73.2833 285° West 264 304 5,800 -1,039 Descending New York TRACON
Tue 06:34:57 AM 40.7000 -73.3833 270° West 255 293 5,100 -331 Descending New York TRACON
Tue 06:35:57 AM 40.7167 -73.4833 282° West 251 289 5,100 -100 Level New York TRACON
Tue 06:36:57 AM 40.7333 -73.5500 288° West 206 237 4,900 -714 Descending New York TRACON
Tue 06:38:03 AM 40.7500 -73.6167 288° West 178 205 3,600 -1,250 Descending New York TRACON
Tue 06:38:57 AM 40.7500 -73.6667 270° West 184 212 2,400 -1,111 Descending New York TRACON
Tue 06:39:51 AM 40.7167 -73.7000 217° Southwest 162 186 1,600 -737 Descending New York TRACON
Tue 06:40:51 AM 40.6833 -73.7167 201° Southwest 128 147 1,000 -650 Descending New York TRACON
Tue 06:41:51 AM 40.6500 -73.7500 217° Southwest 124 143 300 -700 Descending New York TRACON
Tue 06:43:00 AM 40.6333 -73.7667 North  Level FlightAware Approximate
Tue 06:50:00 AM 40.6398 -73.7789 North  Level Estimated

Login

Don't have an account? Register now (free) for customized features, flight alerts, and more!